sensor_id;sensor_type;location;lat;lon;timestamp;P1;durP1;ratioP1;P2;durP2;ratioP2
50483;SDS011;36409;52.168;20.878;2022-07-06T00:02:24;7.95;;;5.80;;
50483;SDS011;36409;52.168;20.878;2022-07-06T00:04:52;7.80;;;6.30;;
50483;SDS011;36409;52.168;20.878;2022-07-06T00:07:22;8.20;;;5.80;;
50483;SDS011;36409;52.168;20.878;2022-07-06T00:09:51;12.00;;;5.70;;
50483;SDS011;36409;52.168;20.878;2022-07-06T00:12:22;7.23;;;5.03;;
50483;SDS011;36409;52.168;20.878;2022-07-06T00:14:53;7.57;;;5.10;;
50483;SDS011;36409;52.168;20.878;2022-07-06T00:17:25;5.80;;;4.43;;
50483;SDS011;36409;52.168;20.878;2022-07-06T00:19:53;10.53;;;5.30;;
50483;SDS011;36409;52.168;20.878;2022-07-06T00:22:22;6.40;;;4.50;;
50483;SDS011;36409;52.168;20.878;2022-07-06T00:24:54;7.77;;;4.83;;
50483;SDS011;36409;52.168;20.878;2022-07-06T00:27:23;7.17;;;5.20;;
50483;SDS011;36409;52.168;20.878;2022-07-06T00:29:55;6.60;;;5.17;;
50483;SDS011;36409;52.168;20.878;2022-07-06T00:32:25;6.40;;;5.03;;
50483;SDS011;36409;52.168;20.878;2022-07-06T00:34:54;6.63;;;4.93;;
50483;SDS011;36409;52.168;20.878;2022-07-06T00:37:24;9.63;;;5.13;;
50483;SDS011;36409;52.168;20.878;2022-07-06T00:39:53;8.47;;;5.23;;
50483;SDS011;36409;52.168;20.878;2022-07-06T00:42:21;9.07;;;5.10;;
50483;SDS011;36409;52.168;20.878;2022-07-06T00:44:53;14.47;;;6.13;;
50483;SDS011;36409;52.168;20.878;2022-07-06T00:47:22;6.73;;;4.87;;
50483;SDS011;36409;52.168;20.878;2022-07-06T00:49:51;8.25;;;4.80;;
50483;SDS011;36409;52.168;20.878;2022-07-06T00:52:38;11.30;;;5.67;;
50483;SDS011;36409;52.168;20.878;2022-07-06T00:55:08;12.53;;;6.00;;
50483;SDS011;36409;52.168;20.878;2022-07-06T00:57:38;10.57;;;6.10;;
50483;SDS011;36409;52.168;20.878;2022-07-06T01:00:14;7.77;;;5.33;;
50483;SDS011;36409;52.168;20.878;2022-07-06T01:02:45;7.93;;;5.47;;
50483;SDS011;36409;52.168;20.878;2022-07-06T01:05:15;7.87;;;5.47;;
50483;SDS011;36409;52.168;20.878;2022-07-06T01:07:49;8.13;;;5.13;;
50483;SDS011;36409;52.168;20.878;2022-07-06T01:10:19;8.33;;;5.90;;
50483;SDS011;36409;52.168;20.878;2022-07-06T01:12:49;10.10;;;5.37;;
50483;SDS011;36409;52.168;20.878;2022-07-06T01:15:18;10.77;;;5.37;;
50483;SDS011;36409;52.168;20.878;2022-07-06T01:17:49;7.43;;;5.60;;
50483;SDS011;36409;52.168;20.878;2022-07-06T01:20:20;7.73;;;5.33;;
50483;SDS011;36409;52.168;20.878;2022-07-06T01:22:51;8.57;;;5.60;;
50483;SDS011;36409;52.168;20.878;2022-07-06T01:25:21;9.63;;;5.60;;
50483;SDS011;36409;52.168;20.878;2022-07-06T01:27:49;9.73;;;5.30;;
50483;SDS011;36409;52.168;20.878;2022-07-06T01:30:18;8.73;;;5.53;;
50483;SDS011;36409;52.168;20.878;2022-07-06T01:32:47;7.83;;;5.43;;
50483;SDS011;36409;52.168;20.878;2022-07-06T01:35:18;9.63;;;5.90;;
50483;SDS011;36409;52.168;20.878;2022-07-06T01:37:47;12.33;;;5.37;;
50483;SDS011;36409;52.168;20.878;2022-07-06T01:40:16;7.00;;;4.97;;
50483;SDS011;36409;52.168;20.878;2022-07-06T01:42:44;8.57;;;5.47;;
50483;SDS011;36409;52.168;20.878;2022-07-06T01:45:13;8.10;;;5.30;;
50483;SDS011;36409;52.168;20.878;2022-07-06T01:47:42;7.53;;;4.93;;
50483;SDS011;36409;52.168;20.878;2022-07-06T01:50:11;6.83;;;5.17;;
50483;SDS011;36409;52.168;20.878;2022-07-06T01:55:13;9.47;;;4.60;;
50483;SDS011;36409;52.168;20.878;2022-07-06T01:57:43;7.83;;;5.10;;
50483;SDS011;36409;52.168;20.878;2022-07-06T02:00:13;6.70;;;4.63;;
50483;SDS011;36409;52.168;20.878;2022-07-06T02:02:45;6.97;;;4.40;;
50483;SDS011;36409;52.168;20.878;2022-07-06T02:05:13;8.80;;;4.60;;
50483;SDS011;36409;52.168;20.878;2022-07-06T02:07:44;8.30;;;4.97;;
50483;SDS011;36409;52.168;20.878;2022-07-06T02:10:12;6.27;;;4.67;;
50483;SDS011;36409;52.168;20.878;2022-07-06T02:12:42;6.47;;;4.43;;
50483;SDS011;36409;52.168;20.878;2022-07-06T02:15:10;7.87;;;4.73;;
50483;SDS011;36409;52.168;20.878;2022-07-06T02:17:43;6.77;;;4.67;;
50483;SDS011;36409;52.168;20.878;2022-07-06T02:20:12;13.77;;;5.43;;
50483;SDS011;36409;52.168;20.878;2022-07-06T02:22:40;10.43;;;4.93;;
50483;SDS011;36409;52.168;20.878;2022-07-06T02:25:09;12.53;;;5.90;;
50483;SDS011;36409;52.168;20.878;2022-07-06T02:27:39;11.77;;;5.60;;
50483;SDS011;36409;52.168;20.878;2022-07-06T02:30:09;10.73;;;5.70;;
50483;SDS011;36409;52.168;20.878;2022-07-06T02:32:39;13.80;;;5.63;;
50483;SDS011;36409;52.168;20.878;2022-07-06T02:35:08;9.27;;;5.57;;
50483;SDS011;36409;52.168;20.878;2022-07-06T02:37:37;15.00;;;5.80;;
50483;SDS011;36409;52.168;20.878;2022-07-06T02:40:07;10.77;;;5.90;;
50483;SDS011;36409;52.168;20.878;2022-07-06T02:42:38;11.80;;;6.27;;
50483;SDS011;36409;52.168;20.878;2022-07-06T02:45:10;10.60;;;5.50;;
50483;SDS011;36409;52.168;20.878;2022-07-06T02:47:41;13.40;;;5.60;;
50483;SDS011;36409;52.168;20.878;2022-07-06T02:50:10;8.87;;;5.20;;
50483;SDS011;36409;52.168;20.878;2022-07-06T02:52:39;16.07;;;5.77;;
50483;SDS011;36409;52.168;20.878;2022-07-06T02:55:09;9.33;;;5.50;;
50483;SDS011;36409;52.168;20.878;2022-07-06T02:57:39;9.90;;;5.70;;
50483;SDS011;36409;52.168;20.878;2022-07-06T03:00:09;11.80;;;6.47;;
50483;SDS011;36409;52.168;20.878;2022-07-06T03:02:39;8.33;;;5.30;;
50483;SDS011;36409;52.168;20.878;2022-07-06T03:05:08;10.10;;;5.53;;
50483;SDS011;36409;52.168;20.878;2022-07-06T03:07:37;9.90;;;5.50;;
50483;SDS011;36409;52.168;20.878;2022-07-06T03:10:07;11.33;;;5.53;;
50483;SDS011;36409;52.168;20.878;2022-07-06T03:12:36;11.67;;;6.03;;
50483;SDS011;36409;52.168;20.878;2022-07-06T03:15:07;9.33;;;5.37;;
50483;SDS011;36409;52.168;20.878;2022-07-06T03:17:38;9.87;;;5.93;;
50483;SDS011;36409;52.168;20.878;2022-07-06T03:20:10;13.63;;;5.67;;
50483;SDS011;36409;52.168;20.878;2022-07-06T03:22:40;12.80;;;6.00;;
50483;SDS011;36409;52.168;20.878;2022-07-06T03:25:09;9.17;;;5.63;;
50483;SDS011;36409;52.168;20.878;2022-07-06T03:27:39;12.77;;;5.33;;
50483;SDS011;36409;52.168;20.878;2022-07-06T03:30:09;9.20;;;5.97;;
50483;SDS011;36409;52.168;20.878;2022-07-06T03:32:44;11.00;;;6.30;;
50483;SDS011;36409;52.168;20.878;2022-07-06T03:35:13;9.63;;;5.43;;
50483;SDS011;36409;52.168;20.878;2022-07-06T03:37:42;12.23;;;6.00;;
50483;SDS011;36409;52.168;20.878;2022-07-06T03:40:12;7.17;;;5.80;;
50483;SDS011;36409;52.168;20.878;2022-07-06T03:42:41;9.73;;;5.70;;
50483;SDS011;36409;52.168;20.878;2022-07-06T03:45:10;10.73;;;5.93;;
50483;SDS011;36409;52.168;20.878;2022-07-06T03:47:40;11.50;;;5.73;;
50483;SDS011;36409;52.168;20.878;2022-07-06T03:50:09;8.40;;;5.33;;
50483;SDS011;36409;52.168;20.878;2022-07-06T03:52:38;8.73;;;5.80;;
50483;SDS011;36409;52.168;20.878;2022-07-06T03:55:10;10.47;;;6.30;;
50483;SDS011;36409;52.168;20.878;2022-07-06T03:57:41;12.07;;;6.15;;
50483;SDS011;36409;52.168;20.878;2022-07-06T04:00:16;9.43;;;6.37;;
50483;SDS011;36409;52.168;20.878;2022-07-06T04:02:49;9.97;;;5.87;;
50483;SDS011;36409;52.168;20.878;2022-07-06T04:05:21;11.27;;;6.70;;
50483;SDS011;36409;52.168;20.878;2022-07-06T04:07:51;14.00;;;5.60;;
50483;SDS011;36409;52.168;20.878;2022-07-06T04:10:21;8.97;;;6.33;;
50483;SDS011;36409;52.168;20.878;2022-07-06T04:12:51;9.07;;;6.07;;
50483;SDS011;36409;52.168;20.878;2022-07-06T04:15:20;11.57;;;6.00;;
50483;SDS011;36409;52.168;20.878;2022-07-06T04:17:48;11.20;;;6.00;;
50483;SDS011;36409;52.168;20.878;2022-07-06T04:20:27;9.17;;;4.97;;
50483;SDS011;36409;52.168;20.878;2022-07-06T04:22:56;7.80;;;5.27;;
50483;SDS011;36409;52.168;20.878;2022-07-06T04:25:26;6.27;;;4.87;;
50483;SDS011;36409;52.168;20.878;2022-07-06T04:27:58;9.83;;;4.70;;
50483;SDS011;36409;52.168;20.878;2022-07-06T04:30:29;6.73;;;4.40;;
50483;SDS011;36409;52.168;20.878;2022-07-06T04:32:58;8.93;;;4.63;;
50483;SDS011;36409;52.168;20.878;2022-07-06T04:35:29;8.47;;;4.40;;
50483;SDS011;36409;52.168;20.878;2022-07-06T04:37:58;8.70;;;4.47;;
50483;SDS011;36409;52.168;20.878;2022-07-06T04:40:34;6.43;;;4.00;;
50483;SDS011;36409;52.168;20.878;2022-07-06T04:43:07;8.70;;;4.57;;
50483;SDS011;36409;52.168;20.878;2022-07-06T04:45:37;7.10;;;5.07;;
50483;SDS011;36409;52.168;20.878;2022-07-06T04:48:06;9.93;;;5.27;;
50483;SDS011;36409;52.168;20.878;2022-07-06T04:50:36;8.07;;;5.20;;
50483;SDS011;36409;52.168;20.878;2022-07-06T04:53:10;11.37;;;5.40;;
50483;SDS011;36409;52.168;20.878;2022-07-06T05:00:54;6.90;;;4.47;;
50483;SDS011;36409;52.168;20.878;2022-07-06T05:03:23;11.33;;;5.10;;
50483;SDS011;36409;52.168;20.878;2022-07-06T05:05:52;12.37;;;5.33;;
50483;SDS011;36409;52.168;20.878;2022-07-06T05:08:21;8.37;;;4.77;;
50483;SDS011;36409;52.168;20.878;2022-07-06T05:10:52;7.30;;;5.30;;
50483;SDS011;36409;52.168;20.878;2022-07-06T05:13:23;7.03;;;5.33;;
50483;SDS011;36409;52.168;20.878;2022-07-06T05:15:52;8.10;;;5.70;;
50483;SDS011;36409;52.168;20.878;2022-07-06T05:18:21;7.97;;;5.73;;
50483;SDS011;36409;52.168;20.878;2022-07-06T05:20:50;7.87;;;5.57;;
50483;SDS011;36409;52.168;20.878;2022-07-06T05:23:19;8.87;;;5.73;;
50483;SDS011;36409;52.168;20.878;2022-07-06T05:25:48;9.07;;;5.53;;
50483;SDS011;36409;52.168;20.878;2022-07-06T05:28:17;9.47;;;5.13;;
50483;SDS011;36409;52.168;20.878;2022-07-06T05:30:46;10.20;;;4.77;;
50483;SDS011;36409;52.168;20.878;2022-07-06T05:33:15;8.53;;;5.17;;
50483;SDS011;36409;52.168;20.878;2022-07-06T05:38:26;7.63;;;5.27;;
50483;SDS011;36409;52.168;20.878;2022-07-06T05:40:55;7.40;;;4.23;;
50483;SDS011;36409;52.168;20.878;2022-07-06T05:43:29;10.13;;;4.80;;
50483;SDS011;36409;52.168;20.878;2022-07-06T05:45:59;6.73;;;4.50;;
50483;SDS011;36409;52.168;20.878;2022-07-06T05:48:34;8.27;;;4.47;;
50483;SDS011;36409;52.168;20.878;2022-07-06T05:51:22;7.13;;;3.50;;
50483;SDS011;36409;52.168;20.878;2022-07-06T05:53:52;8.73;;;3.73;;
50483;SDS011;36409;52.168;20.878;2022-07-06T05:56:23;7.97;;;3.30;;
50483;SDS011;36409;52.168;20.878;2022-07-06T05:58:52;6.33;;;3.73;;
50483;SDS011;36409;52.168;20.878;2022-07-06T06:01:22;6.37;;;3.50;;
50483;SDS011;36409;52.168;20.878;2022-07-06T06:04:05;6.30;;;3.33;;
50483;SDS011;36409;52.168;20.878;2022-07-06T06:06:34;6.97;;;3.17;;
50483;SDS011;36409;52.168;20.878;2022-07-06T06:09:03;6.13;;;3.80;;
50483;SDS011;36409;52.168;20.878;2022-07-06T06:11:32;6.50;;;4.00;;
50483;SDS011;36409;52.168;20.878;2022-07-06T06:14:01;11.27;;;4.37;;
50483;SDS011;36409;52.168;20.878;2022-07-06T06:16:31;10.43;;;5.80;;
50483;SDS011;36409;52.168;20.878;2022-07-06T06:19:01;10.20;;;6.17;;
50483;SDS011;36409;52.168;20.878;2022-07-06T06:21:30;11.60;;;6.33;;
50483;SDS011;36409;52.168;20.878;2022-07-06T06:23:59;9.37;;;6.23;;
50483;SDS011;36409;52.168;20.878;2022-07-06T06:26:28;12.77;;;5.67;;
50483;SDS011;36409;52.168;20.878;2022-07-06T06:28:56;9.10;;;5.23;;
50483;SDS011;36409;52.168;20.878;2022-07-06T06:31:26;7.73;;;4.77;;
50483;SDS011;36409;52.168;20.878;2022-07-06T06:33:55;7.93;;;4.80;;
50483;SDS011;36409;52.168;20.878;2022-07-06T06:36:23;7.57;;;4.10;;
50483;SDS011;36409;52.168;20.878;2022-07-06T06:38:52;6.27;;;3.83;;
50483;SDS011;36409;52.168;20.878;2022-07-06T06:41:23;7.50;;;3.57;;
50483;SDS011;36409;52.168;20.878;2022-07-06T06:43:52;5.47;;;3.40;;
50483;SDS011;36409;52.168;20.878;2022-07-06T06:46:25;8.00;;;3.37;;
50483;SDS011;36409;52.168;20.878;2022-07-06T06:48:54;8.70;;;3.80;;
50483;SDS011;36409;52.168;20.878;2022-07-06T06:51:23;11.50;;;4.50;;
50483;SDS011;36409;52.168;20.878;2022-07-06T06:53:52;7.73;;;4.17;;
50483;SDS011;36409;52.168;20.878;2022-07-06T06:56:22;10.47;;;3.70;;
50483;SDS011;36409;52.168;20.878;2022-07-06T06:58:50;7.30;;;3.70;;
50483;SDS011;36409;52.168;20.878;2022-07-06T07:01:39;4.87;;;3.40;;
50483;SDS011;36409;52.168;20.878;2022-07-06T07:04:10;6.63;;;3.20;;
50483;SDS011;36409;52.168;20.878;2022-07-06T07:06:39;9.83;;;3.77;;
50483;SDS011;36409;52.168;20.878;2022-07-06T07:09:11;6.53;;;3.73;;
50483;SDS011;36409;52.168;20.878;2022-07-06T07:11:40;11.40;;;3.97;;
50483;SDS011;36409;52.168;20.878;2022-07-06T07:14:14;5.70;;;3.07;;
50483;SDS011;36409;52.168;20.878;2022-07-06T07:16:51;7.90;;;2.80;;
50483;SDS011;36409;52.168;20.878;2022-07-06T07:19:20;4.33;;;2.50;;
50483;SDS011;36409;52.168;20.878;2022-07-06T07:21:49;7.60;;;2.73;;
50483;SDS011;36409;52.168;20.878;2022-07-06T07:24:18;5.17;;;2.30;;
50483;SDS011;36409;52.168;20.878;2022-07-06T07:26:50;4.00;;;2.00;;
50483;SDS011;36409;52.168;20.878;2022-07-06T07:29:26;8.20;;;2.70;;
50483;SDS011;36409;52.168;20.878;2022-07-06T07:31:55;6.80;;;2.90;;
50483;SDS011;36409;52.168;20.878;2022-07-06T07:34:25;11.60;;;2.87;;
50483;SDS011;36409;52.168;20.878;2022-07-06T07:36:53;4.47;;;2.67;;
50483;SDS011;36409;52.168;20.878;2022-07-06T07:39:22;8.77;;;3.20;;
50483;SDS011;36409;52.168;20.878;2022-07-06T07:41:51;5.30;;;2.50;;
50483;SDS011;36409;52.168;20.878;2022-07-06T07:44:20;6.07;;;2.60;;
50483;SDS011;36409;52.168;20.878;2022-07-06T07:46:54;4.73;;;2.40;;
50483;SDS011;36409;52.168;20.878;2022-07-06T07:49:23;5.20;;;2.40;;
50483;SDS011;36409;52.168;20.878;2022-07-06T07:51:54;5.20;;;2.50;;
50483;SDS011;36409;52.168;20.878;2022-07-06T07:54:23;6.67;;;2.60;;
50483;SDS011;36409;52.168;20.878;2022-07-06T07:56:52;4.17;;;2.07;;
50483;SDS011;36409;52.168;20.878;2022-07-06T07:59:23;5.90;;;2.07;;
50483;SDS011;36409;52.168;20.878;2022-07-06T08:01:52;9.80;;;2.10;;
50483;SDS011;36409;52.168;20.878;2022-07-06T08:04:22;6.80;;;2.10;;
50483;SDS011;36409;52.168;20.878;2022-07-06T08:06:51;4.53;;;2.10;;
50483;SDS011;36409;52.168;20.878;2022-07-06T08:09:28;5.17;;;1.53;;
50483;SDS011;36409;52.168;20.878;2022-07-06T08:11:57;9.57;;;2.00;;
50483;SDS011;36409;52.168;20.878;2022-07-06T08:14:26;4.13;;;1.80;;
50483;SDS011;36409;52.168;20.878;2022-07-06T08:16:55;5.37;;;1.90;;
50483;SDS011;36409;52.168;20.878;2022-07-06T08:19:25;5.83;;;1.87;;
50483;SDS011;36409;52.168;20.878;2022-07-06T08:21:54;5.00;;;1.60;;
50483;SDS011;36409;52.168;20.878;2022-07-06T08:24:23;2.97;;;1.53;;
50483;SDS011;36409;52.168;20.878;2022-07-06T08:26:53;6.60;;;1.73;;
50483;SDS011;36409;52.168;20.878;2022-07-06T08:29:24;5.23;;;1.53;;
50483;SDS011;36409;52.168;20.878;2022-07-06T08:31:54;4.63;;;1.60;;
50483;SDS011;36409;52.168;20.878;2022-07-06T08:37:01;4.87;;;1.60;;
50483;SDS011;36409;52.168;20.878;2022-07-06T08:39:31;6.50;;;1.67;;
50483;SDS011;36409;52.168;20.878;2022-07-06T08:42:00;4.80;;;1.50;;
50483;SDS011;36409;52.168;20.878;2022-07-06T08:44:30;3.90;;;1.70;;
50483;SDS011;36409;52.168;20.878;2022-07-06T08:47:00;7.37;;;1.60;;
50483;SDS011;36409;52.168;20.878;2022-07-06T08:49:34;5.03;;;1.30;;
50483;SDS011;36409;52.168;20.878;2022-07-06T08:52:06;2.93;;;1.20;;
50483;SDS011;36409;52.168;20.878;2022-07-06T08:54:38;4.50;;;1.52;;
50483;SDS011;36409;52.168;20.878;2022-07-06T08:57:07;3.27;;;1.30;;
50483;SDS011;36409;52.168;20.878;2022-07-06T08:59:36;5.23;;;1.43;;
50483;SDS011;36409;52.168;20.878;2022-07-06T09:02:06;5.53;;;1.43;;
50483;SDS011;36409;52.168;20.878;2022-07-06T09:04:37;4.63;;;1.20;;
50483;SDS011;36409;52.168;20.878;2022-07-06T09:07:10;5.87;;;1.20;;
50483;SDS011;36409;52.168;20.878;2022-07-06T09:09:38;5.63;;;1.50;;
50483;SDS011;36409;52.168;20.878;2022-07-06T09:12:10;5.70;;;1.30;;
50483;SDS011;36409;52.168;20.878;2022-07-06T09:14:42;2.97;;;1.20;;
50483;SDS011;36409;52.168;20.878;2022-07-06T09:17:11;4.93;;;0.93;;
50483;SDS011;36409;52.168;20.878;2022-07-06T09:19:44;2.30;;;1.27;;
50483;SDS011;36409;52.168;20.878;2022-07-06T09:22:27;3.63;;;1.00;;
50483;SDS011;36409;52.168;20.878;2022-07-06T09:25:02;5.00;;;1.33;;
50483;SDS011;36409;52.168;20.878;2022-07-06T09:27:37;5.70;;;1.40;;
50483;SDS011;36409;52.168;20.878;2022-07-06T09:32:39;3.80;;;0.80;;
50483;SDS011;36409;52.168;20.878;2022-07-06T09:35:08;4.17;;;1.20;;
50483;SDS011;36409;52.168;20.878;2022-07-06T09:37:52;5.10;;;0.87;;
50483;SDS011;36409;52.168;20.878;2022-07-06T09:40:29;2.27;;;0.97;;
50483;SDS011;36409;52.168;20.878;2022-07-06T09:43:10;2.57;;;1.00;;
50483;SDS011;36409;52.168;20.878;2022-07-06T09:45:43;1.98;;;0.88;;
50483;SDS011;36409;52.168;20.878;2022-07-06T09:48:14;2.83;;;1.00;;
50483;SDS011;36409;52.168;20.878;2022-07-06T09:50:46;3.00;;;1.13;;
50483;SDS011;36409;52.168;20.878;2022-07-06T09:53:16;1.93;;;0.90;;
50483;SDS011;36409;52.168;20.878;2022-07-06T09:55:47;2.70;;;1.10;;
50483;SDS011;36409;52.168;20.878;2022-07-06T09:58:16;3.20;;;1.03;;
50483;SDS011;36409;52.168;20.878;2022-07-06T10:01:06;5.53;;;1.40;;
50483;SDS011;36409;52.168;20.878;2022-07-06T10:03:37;4.60;;;1.10;;
50483;SDS011;36409;52.168;20.878;2022-07-06T10:06:07;2.87;;;0.97;;
50483;SDS011;36409;52.168;20.878;2022-07-06T10:08:36;2.27;;;0.77;;
50483;SDS011;36409;52.168;20.878;2022-07-06T10:11:06;3.57;;;0.73;;
50483;SDS011;36409;52.168;20.878;2022-07-06T10:13:40;2.63;;;0.87;;
50483;SDS011;36409;52.168;20.878;2022-07-06T10:16:10;2.60;;;0.85;;
50483;SDS011;36409;52.168;20.878;2022-07-06T10:18:38;3.00;;;1.10;;
50483;SDS011;36409;52.168;20.878;2022-07-06T10:21:08;2.70;;;0.80;;
50483;SDS011;36409;52.168;20.878;2022-07-06T10:23:37;5.20;;;1.13;;
50483;SDS011;36409;52.168;20.878;2022-07-06T10:26:07;2.53;;;0.90;;
50483;SDS011;36409;52.168;20.878;2022-07-06T10:31:09;3.93;;;1.00;;
50483;SDS011;36409;52.168;20.878;2022-07-06T10:33:38;3.03;;;0.83;;
50483;SDS011;36409;52.168;20.878;2022-07-06T10:36:08;1.90;;;0.60;;
50483;SDS011;36409;52.168;20.878;2022-07-06T10:38:39;1.87;;;0.80;;
50483;SDS011;36409;52.168;20.878;2022-07-06T10:41:07;1.47;;;0.80;;
50483;SDS011;36409;52.168;20.878;2022-07-06T10:43:37;2.37;;;0.80;;
50483;SDS011;36409;52.168;20.878;2022-07-06T10:46:10;2.62;;;0.90;;
50483;SDS011;36409;52.168;20.878;2022-07-06T10:48:40;2.60;;;0.80;;
50483;SDS011;36409;52.168;20.878;2022-07-06T10:51:10;3.00;;;1.10;;
50483;SDS011;36409;52.168;20.878;2022-07-06T10:53:40;6.23;;;1.03;;
50483;SDS011;36409;52.168;20.878;2022-07-06T10:56:11;3.50;;;1.13;;
50483;SDS011;36409;52.168;20.878;2022-07-06T10:58:41;5.33;;;1.10;;
50483;SDS011;36409;52.168;20.878;2022-07-06T11:01:19;7.20;;;1.20;;
50483;SDS011;36409;52.168;20.878;2022-07-06T11:04:05;7.37;;;1.10;;
50483;SDS011;36409;52.168;20.878;2022-07-06T11:06:36;2.77;;;1.10;;
50483;SDS011;36409;52.168;20.878;2022-07-06T11:09:07;2.27;;;0.90;;
50483;SDS011;36409;52.168;20.878;2022-07-06T11:11:39;2.30;;;0.70;;
50483;SDS011;36409;52.168;20.878;2022-07-06T11:14:12;2.57;;;0.90;;
50483;SDS011;36409;52.168;20.878;2022-07-06T11:19:29;1.87;;;0.57;;
50483;SDS011;36409;52.168;20.878;2022-07-06T11:22:04;4.40;;;1.10;;
50483;SDS011;36409;52.168;20.878;2022-07-06T11:24:35;3.23;;;1.10;;
50483;SDS011;36409;52.168;20.878;2022-07-06T11:27:05;4.13;;;1.13;;
50483;SDS011;36409;52.168;20.878;2022-07-06T11:29:35;2.40;;;0.87;;
50483;SDS011;36409;52.168;20.878;2022-07-06T11:32:07;2.10;;;0.80;;
50483;SDS011;36409;52.168;20.878;2022-07-06T11:34:38;4.83;;;1.00;;
50483;SDS011;36409;52.168;20.878;2022-07-06T11:37:10;3.83;;;1.00;;
50483;SDS011;36409;52.168;20.878;2022-07-06T11:39:40;1.97;;;0.80;;
50483;SDS011;36409;52.168;20.878;2022-07-06T11:42:11;3.93;;;1.03;;
50483;SDS011;36409;52.168;20.878;2022-07-06T11:44:41;3.60;;;0.90;;
50483;SDS011;36409;52.168;20.878;2022-07-06T11:47:13;2.23;;;0.97;;
50483;SDS011;36409;52.168;20.878;2022-07-06T11:49:51;2.63;;;0.87;;
50483;SDS011;36409;52.168;20.878;2022-07-06T11:52:19;2.40;;;0.80;;
50483;SDS011;36409;52.168;20.878;2022-07-06T11:54:56;2.27;;;0.80;;
50483;SDS011;36409;52.168;20.878;2022-07-06T11:57:26;3.73;;;1.50;;
50483;SDS011;36409;52.168;20.878;2022-07-06T11:59:59;2.20;;;0.73;;
50483;SDS011;36409;52.168;20.878;2022-07-06T12:02:28;3.53;;;1.03;;
50483;SDS011;36409;52.168;20.878;2022-07-06T12:04:57;4.37;;;0.80;;
50483;SDS011;36409;52.168;20.878;2022-07-06T12:07:26;2.63;;;0.83;;
50483;SDS011;36409;52.168;20.878;2022-07-06T12:09:54;2.07;;;0.80;;
50483;SDS011;36409;52.168;20.878;2022-07-06T12:12:23;5.70;;;0.97;;
50483;SDS011;36409;52.168;20.878;2022-07-06T12:14:54;3.03;;;0.97;;
50483;SDS011;36409;52.168;20.878;2022-07-06T12:17:23;3.50;;;1.20;;
50483;SDS011;36409;52.168;20.878;2022-07-06T12:19:53;3.47;;;1.17;;
50483;SDS011;36409;52.168;20.878;2022-07-06T12:22:26;1.53;;;0.77;;
50483;SDS011;36409;52.168;20.878;2022-07-06T12:24:54;2.43;;;1.07;;
50483;SDS011;36409;52.168;20.878;2022-07-06T12:27:23;1.63;;;0.87;;
50483;SDS011;36409;52.168;20.878;2022-07-06T12:29:53;1.53;;;0.63;;
50483;SDS011;36409;52.168;20.878;2022-07-06T12:32:37;1.80;;;0.80;;
50483;SDS011;36409;52.168;20.878;2022-07-06T12:35:07;2.17;;;0.70;;
50483;SDS011;36409;52.168;20.878;2022-07-06T12:37:38;3.27;;;1.07;;
50483;SDS011;36409;52.168;20.878;2022-07-06T12:40:24;3.53;;;0.83;;
50483;SDS011;36409;52.168;20.878;2022-07-06T12:42:54;1.77;;;0.80;;
50483;SDS011;36409;52.168;20.878;2022-07-06T12:45:26;6.17;;;1.13;;
50483;SDS011;36409;52.168;20.878;2022-07-06T12:47:58;5.90;;;0.93;;
50483;SDS011;36409;52.168;20.878;2022-07-06T12:50:31;2.23;;;0.97;;
50483;SDS011;36409;52.168;20.878;2022-07-06T12:53:02;2.08;;;1.00;;
50483;SDS011;36409;52.168;20.878;2022-07-06T12:55:32;5.23;;;0.90;;
50483;SDS011;36409;52.168;20.878;2022-07-06T12:58:01;2.13;;;0.80;;
50483;SDS011;36409;52.168;20.878;2022-07-06T13:00:32;3.20;;;0.90;;
50483;SDS011;36409;52.168;20.878;2022-07-06T13:03:12;3.43;;;1.10;;
50483;SDS011;36409;52.168;20.878;2022-07-06T13:05:48;2.63;;;0.90;;
50483;SDS011;36409;52.168;20.878;2022-07-06T13:08:18;4.03;;;1.03;;
50483;SDS011;36409;52.168;20.878;2022-07-06T13:10:47;1.03;;;0.70;;
50483;SDS011;36409;52.168;20.878;2022-07-06T13:13:16;2.90;;;0.93;;
50483;SDS011;36409;52.168;20.878;2022-07-06T13:15:45;3.40;;;1.13;;
50483;SDS011;36409;52.168;20.878;2022-07-06T13:18:13;2.67;;;1.13;;
50483;SDS011;36409;52.168;20.878;2022-07-06T13:20:42;2.63;;;0.80;;
50483;SDS011;36409;52.168;20.878;2022-07-06T13:23:10;2.03;;;1.00;;
50483;SDS011;36409;52.168;20.878;2022-07-06T13:25:39;1.40;;;0.70;;
50483;SDS011;36409;52.168;20.878;2022-07-06T13:28:07;2.27;;;1.00;;
50483;SDS011;36409;52.168;20.878;2022-07-06T13:30:36;3.07;;;0.87;;
50483;SDS011;36409;52.168;20.878;2022-07-06T13:33:05;4.80;;;0.83;;
50483;SDS011;36409;52.168;20.878;2022-07-06T13:35:34;2.50;;;0.80;;
50483;SDS011;36409;52.168;20.878;2022-07-06T13:38:03;3.13;;;1.00;;
50483;SDS011;36409;52.168;20.878;2022-07-06T13:40:39;3.17;;;1.10;;
50483;SDS011;36409;52.168;20.878;2022-07-06T13:43:08;4.27;;;1.20;;
50483;SDS011;36409;52.168;20.878;2022-07-06T13:45:37;3.27;;;0.87;;
50483;SDS011;36409;52.168;20.878;2022-07-06T13:48:05;3.70;;;0.93;;
50483;SDS011;36409;52.168;20.878;2022-07-06T13:50:34;1.70;;;0.70;;
50483;SDS011;36409;52.168;20.878;2022-07-06T13:53:03;2.37;;;0.93;;
50483;SDS011;36409;52.168;20.878;2022-07-06T13:55:34;3.17;;;0.83;;
50483;SDS011;36409;52.168;20.878;2022-07-06T13:58:03;4.00;;;1.20;;
50483;SDS011;36409;52.168;20.878;2022-07-06T14:00:35;1.50;;;0.80;;
50483;SDS011;36409;52.168;20.878;2022-07-06T14:03:07;2.50;;;1.00;;
50483;SDS011;36409;52.168;20.878;2022-07-06T14:05:35;6.07;;;1.00;;
50483;SDS011;36409;52.168;20.878;2022-07-06T14:08:05;2.27;;;0.90;;
50483;SDS011;36409;52.168;20.878;2022-07-06T14:10:34;4.67;;;1.63;;
50483;SDS011;36409;52.168;20.878;2022-07-06T14:13:02;3.10;;;0.90;;
50483;SDS011;36409;52.168;20.878;2022-07-06T14:15:32;2.17;;;0.77;;
50483;SDS011;36409;52.168;20.878;2022-07-06T14:18:01;2.67;;;1.20;;
50483;SDS011;36409;52.168;20.878;2022-07-06T14:20:31;7.37;;;1.33;;
50483;SDS011;36409;52.168;20.878;2022-07-06T14:22:59;5.23;;;1.20;;
50483;SDS011;36409;52.168;20.878;2022-07-06T14:25:28;3.50;;;0.80;;
50483;SDS011;36409;52.168;20.878;2022-07-06T14:27:57;2.33;;;1.03;;
50483;SDS011;36409;52.168;20.878;2022-07-06T14:30:25;2.80;;;1.10;;
50483;SDS011;36409;52.168;20.878;2022-07-06T14:32:55;3.47;;;1.13;;
50483;SDS011;36409;52.168;20.878;2022-07-06T14:35:24;2.43;;;0.77;;
50483;SDS011;36409;52.168;20.878;2022-07-06T14:37:53;3.87;;;1.07;;
50483;SDS011;36409;52.168;20.878;2022-07-06T14:40:21;5.30;;;1.10;;
50483;SDS011;36409;52.168;20.878;2022-07-06T14:42:50;5.00;;;1.20;;
50483;SDS011;36409;52.168;20.878;2022-07-06T14:45:19;2.70;;;0.80;;
50483;SDS011;36409;52.168;20.878;2022-07-06T14:47:48;2.70;;;1.07;;
50483;SDS011;36409;52.168;20.878;2022-07-06T14:50:17;8.10;;;1.50;;
50483;SDS011;36409;52.168;20.878;2022-07-06T14:52:46;7.40;;;1.20;;
50483;SDS011;36409;52.168;20.878;2022-07-06T14:55:15;8.63;;;1.27;;
50483;SDS011;36409;52.168;20.878;2022-07-06T14:57:44;4.17;;;1.63;;
50483;SDS011;36409;52.168;20.878;2022-07-06T15:00:14;4.00;;;1.20;;
50483;SDS011;36409;52.168;20.878;2022-07-06T15:02:44;3.63;;;1.20;;
50483;SDS011;36409;52.168;20.878;2022-07-06T15:05:13;3.63;;;1.40;;
50483;SDS011;36409;52.168;20.878;2022-07-06T15:07:41;2.35;;;1.10;;
50483;SDS011;36409;52.168;20.878;2022-07-06T15:10:11;3.43;;;1.33;;
50483;SDS011;36409;52.168;20.878;2022-07-06T15:12:39;10.40;;;1.30;;
50483;SDS011;36409;52.168;20.878;2022-07-06T15:15:08;3.60;;;1.27;;